createdAt,value
2018-01-06T00:00:15.516Z,4.70
2018-01-06T00:05:38.899Z,4.60
2018-01-06T00:08:09.833Z,4.50
2018-01-06T00:13:18.149Z,4.50
2018-01-06T00:15:45.622Z,4.50
2018-01-06T00:18:13.138Z,4.50
2018-01-06T00:20:46.578Z,4.50
2018-01-06T00:23:15.079Z,4.50
2018-01-06T00:25:43.336Z,4.60
2018-01-06T00:28:10.822Z,4.60
2018-01-06T00:30:38.308Z,4.70
2018-01-06T00:33:05.787Z,4.80
2018-01-06T00:35:33.329Z,4.80
2018-01-06T00:38:13.749Z,4.90
2018-01-06T00:40:41.241Z,5.00
2018-01-06T00:43:10.539Z,5.00
2018-01-06T00:45:38.011Z,5.10
2018-01-06T00:48:18.599Z,5.10
2018-01-06T00:50:58.634Z,5.10
2018-01-06T00:53:36.461Z,5.10
2018-01-06T00:56:14.083Z,5.20
2018-01-06T00:58:41.554Z,5.20
2018-01-06T01:01:09.928Z,5.20
2018-01-06T01:03:37.417Z,5.30
2018-01-06T01:06:11.558Z,5.30
2018-01-06T01:08:43.279Z,5.30
2018-01-06T01:11:16.574Z,5.30
2018-01-06T01:19:35.098Z,5.30
2018-01-06T01:22:02.613Z,5.30
2018-01-06T01:24:30.853Z,5.30
2018-01-06T01:27:05.190Z,5.30
2018-01-06T01:29:32.676Z,5.30
2018-01-06T01:32:07.819Z,5.30
2018-01-06T01:34:35.297Z,5.30
2018-01-06T01:37:02.769Z,5.30
2018-01-06T01:39:36.910Z,5.40
2018-01-06T01:42:11.692Z,5.40
2018-01-06T01:47:32.555Z,5.40
2018-01-06T01:50:00.027Z,5.40
2018-01-06T01:52:35.302Z,5.40
2018-01-06T01:55:02.769Z,5.30
2018-01-06T01:57:30.262Z,5.30
2018-01-06T01:59:57.753Z,5.30
2018-01-06T02:02:35.293Z,5.30
2018-01-06T02:05:20.052Z,5.30
2018-01-06T02:07:47.536Z,5.40
2018-01-06T02:10:16.188Z,5.40
2018-01-06T02:13:07.203Z,5.40
2018-01-06T02:15:35.484Z,5.30
2018-01-06T02:18:10.351Z,5.30
2018-01-06T02:20:37.816Z,5.30
2018-01-06T02:23:24.902Z,5.20
2018-01-06T02:25:52.427Z,5.20
2018-01-06T02:28:19.919Z,5.20
2018-01-06T02:30:49.211Z,5.10
2018-01-06T02:33:16.738Z,5.10
2018-01-06T02:35:44.221Z,5.10
2018-01-06T02:38:14.880Z,5.10
2018-01-06T02:40:42.383Z,5.10
2018-01-06T02:43:09.938Z,5.10
2018-01-06T02:45:50.494Z,5.10
2018-01-06T02:48:18.236Z,5.10
2018-01-06T02:58:50.559Z,5.30
2018-01-06T03:01:18.030Z,5.30
2018-01-06T03:03:45.523Z,5.30
2018-01-06T03:06:18.873Z,5.30
2018-01-06T03:08:56.644Z,5.30
2018-01-06T03:11:24.127Z,5.40
2018-01-06T03:13:51.601Z,5.30
2018-01-06T03:16:22.394Z,5.30
2018-01-06T03:18:49.920Z,5.30
2018-01-06T03:21:17.409Z,5.30
2018-01-06T03:23:47.990Z,5.30
2018-01-06T03:26:16.304Z,5.40
2018-01-06T03:36:52.210Z,5.40
2018-01-06T03:39:25.841Z,5.30
2018-01-06T03:41:54.124Z,5.30
2018-01-06T03:44:27.018Z,5.20
2018-01-06T03:46:55.101Z,5.20
2018-01-06T03:49:22.672Z,5.10
2018-01-06T03:51:50.174Z,5.10
2018-01-06T03:54:17.681Z,5.10
2018-01-06T03:56:45.194Z,5.10
2018-01-06T03:59:21.066Z,5.10
2018-01-06T04:01:49.338Z,5.00
2018-01-06T04:04:17.642Z,5.00
2018-01-06T04:06:48.009Z,5.00
2018-01-06T04:09:15.511Z,5.00
2018-01-06T04:11:45.695Z,4.90
2018-01-06T04:14:14.467Z,4.90
2018-01-06T04:16:45.274Z,4.80
2018-01-06T04:19:18.617Z,4.80
2018-01-06T04:21:52.380Z,4.70
2018-01-06T04:24:19.858Z,4.70
2018-01-06T04:26:47.329Z,4.60
2018-01-06T04:29:27.823Z,4.60
2018-01-06T04:31:56.095Z,4.60
2018-01-06T04:34:23.578Z,4.60
2018-01-06T04:39:38.194Z,4.50
2018-01-06T04:42:06.494Z,4.40
2018-01-06T04:49:59.146Z,4.40
2018-01-06T04:55:01.258Z,4.40
2018-01-06T04:57:30.331Z,4.30
2018-01-06T05:02:37.701Z,4.30
2018-01-06T05:05:05.202Z,4.30
2018-01-06T05:07:32.694Z,4.30
2018-01-06T05:10:19.921Z,4.30
2018-01-06T05:12:47.415Z,4.30
2018-01-06T05:15:20.834Z,4.30
2018-01-06T05:17:48.309Z,4.30
2018-01-06T05:20:16.453Z,4.30
2018-01-06T05:22:47.474Z,4.30
2018-01-06T05:25:29.495Z,4.30
2018-01-06T05:27:56.957Z,4.30
2018-01-06T05:30:24.432Z,4.40
2018-01-06T05:32:51.924Z,4.40
2018-01-06T05:35:27.910Z,4.40
2018-01-06T05:37:55.391Z,4.50
2018-01-06T05:40:22.874Z,4.50
2018-01-06T05:42:51.159Z,4.60
2018-01-06T05:45:19.482Z,4.60
2018-01-06T05:47:46.953Z,4.60
2018-01-06T05:50:14.466Z,4.70
2018-01-06T05:52:42.003Z,4.60
2018-01-06T05:55:10.278Z,4.60
2018-01-06T05:57:38.537Z,4.50
2018-01-06T06:00:06.009Z,4.50
2018-01-06T06:02:34.304Z,4.50
2018-01-06T06:05:01.804Z,4.50
2018-01-06T06:07:29.289Z,4.50
2018-01-06T06:09:56.766Z,4.50
2018-01-06T06:12:25.077Z,4.60
2018-01-06T06:14:52.547Z,4.60
2018-01-06T06:17:20.018Z,4.60
2018-01-06T06:19:47.528Z,4.60
2018-01-06T06:22:15.072Z,4.60
2018-01-06T06:24:42.576Z,4.50
2018-01-06T06:27:10.088Z,4.50
2018-01-06T06:29:37.585Z,4.40
2018-01-06T06:32:05.106Z,4.30
2018-01-06T06:34:33.388Z,4.30
2018-01-06T06:37:07.920Z,4.30
2018-01-06T06:39:41.537Z,4.20
2018-01-06T06:42:09.021Z,4.20
2018-01-06T06:44:36.506Z,4.20
2018-01-06T06:47:03.994Z,4.20
2018-01-06T06:57:14.937Z,4.30
2018-01-06T06:59:43.819Z,4.30
2018-01-06T07:02:12.149Z,4.40
2018-01-06T07:04:44.936Z,4.40
2018-01-06T07:07:15.711Z,4.40
2018-01-06T07:09:43.468Z,4.50
2018-01-06T07:12:19.124Z,4.50
2018-01-06T07:14:47.845Z,4.60
2018-01-06T07:17:21.206Z,4.60
2018-01-06T07:19:48.701Z,4.70
2018-01-06T07:22:16.181Z,4.70
2018-01-06T07:24:46.859Z,4.70
2018-01-06T07:27:31.078Z,4.70
2018-01-06T07:30:19.839Z,4.70
2018-01-06T07:32:47.407Z,4.80
2018-01-06T07:35:15.046Z,4.80
2018-01-06T07:37:48.782Z,4.80
2018-01-06T07:40:16.289Z,4.80
2018-01-06T07:42:59.267Z,4.90
2018-01-06T07:45:35.111Z,4.90
2018-01-06T07:48:06.147Z,4.90
2018-01-06T07:50:34.382Z,5.00
2018-01-06T07:53:05.434Z,5.00
2018-01-06T07:55:32.909Z,5.00
2018-01-06T07:58:01.142Z,5.10
2018-01-06T08:00:28.643Z,5.00
2018-01-06T08:11:02.181Z,5.10
2018-01-06T08:16:20.823Z,5.10
2018-01-06T08:18:54.263Z,5.10
2018-01-06T08:24:03.007Z,5.10
2018-01-06T08:26:31.250Z,5.20
2018-01-06T08:28:58.900Z,5.20
2018-01-06T08:31:30.948Z,5.20
2018-01-06T08:37:19.188Z,5.20
2018-01-06T08:39:49.575Z,5.20
2018-01-06T08:44:50.541Z,5.30
2018-01-06T08:47:18.025Z,5.30
2018-01-06T08:49:47.407Z,5.40
2018-01-06T08:52:15.946Z,5.40
2018-01-06T08:54:46.750Z,5.50
2018-01-06T08:57:14.368Z,5.50
2018-01-06T08:59:41.859Z,5.50
2018-01-06T09:02:10.129Z,5.50
2018-01-06T09:04:38.610Z,5.50
2018-01-06T09:07:08.929Z,5.50
2018-01-06T09:25:34.071Z,5.70
2018-01-06T09:33:51.936Z,5.60
2018-01-06T09:36:26.145Z,5.80
2018-01-06T09:38:54.399Z,5.80
2018-01-06T09:41:21.881Z,5.80
2018-01-06T09:43:50.150Z,5.80
2018-01-06T09:46:20.179Z,5.90
2018-01-06T09:48:48.016Z,5.90
2018-01-06T10:01:52.960Z,6.10
2018-01-06T10:04:20.454Z,6.10
2018-01-06T10:06:47.933Z,6.10
2018-01-06T10:09:15.431Z,6.10
2018-01-06T10:11:55.755Z,6.10
2018-01-06T10:14:49.625Z,6.10
2018-01-06T10:17:23.020Z,6.10
2018-01-06T10:19:50.495Z,6.10
2018-01-06T10:22:18.782Z,6.60
2018-01-06T10:24:47.072Z,6.50
2018-01-06T10:27:24.475Z,6.50
2018-01-06T10:29:58.404Z,6.50
2018-01-06T10:32:25.878Z,6.60
2018-01-06T10:34:53.363Z,6.60
2018-01-06T10:39:56.754Z,6.70
2018-01-06T10:42:24.250Z,6.60
2018-01-06T10:44:53.418Z,6.50
2018-01-06T11:18:01.432Z,7.00
2018-01-06T11:26:13.860Z,7.20
2018-01-06T11:46:44.275Z,6.90
2018-01-06T12:11:14.801Z,6.90
2018-01-06T12:13:42.301Z,6.80
2018-01-06T12:16:09.832Z,6.80
2018-01-06T12:18:38.142Z,7.00
2018-01-06T12:21:05.642Z,6.90
2018-01-06T12:23:33.140Z,7.00
2018-01-06T12:26:00.724Z,7.00
2018-01-06T12:28:28.241Z,7.20
2018-01-06T12:30:55.770Z,7.20
2018-01-06T12:33:23.259Z,7.10
2018-01-06T12:35:51.539Z,7.10
2018-01-06T12:38:19.861Z,7.10
2018-01-06T12:40:47.375Z,7.10
2018-01-06T12:43:15.658Z,7.20
2018-01-06T12:45:43.957Z,7.10
2018-01-06T12:48:11.450Z,7.10
2018-01-06T12:50:40.966Z,7.20
2018-01-06T12:53:08.454Z,7.10
2018-01-06T12:55:36.798Z,7.20
2018-01-06T12:58:07.505Z,7.20
2018-01-06T13:00:35.043Z,7.10
2018-01-06T13:03:02.535Z,7.10
2018-01-06T13:05:30.041Z,7.10
2018-01-06T13:08:04.305Z,7.20
2018-01-06T13:10:31.863Z,7.10
2018-01-06T13:12:59.358Z,7.10
2018-01-06T13:15:26.876Z,7.20
2018-01-06T13:17:54.369Z,7.20
2018-01-06T13:20:21.837Z,7.20
2018-01-06T13:22:49.316Z,7.20
2018-01-06T13:25:16.890Z,7.10
2018-01-06T13:27:44.454Z,7.20
2018-01-06T13:30:12.024Z,7.10
2018-01-06T13:32:39.579Z,7.10
2018-01-06T13:35:07.107Z,7.10
2018-01-06T13:37:38.321Z,7.00
2018-01-06T13:40:05.848Z,7.00
2018-01-06T13:42:34.196Z,7.00
2018-01-06T13:45:01.702Z,7.00
2018-01-06T13:47:29.273Z,6.90
2018-01-06T13:49:56.832Z,6.90
2018-01-06T13:52:25.158Z,6.90
2018-01-06T13:54:52.731Z,6.90
2018-01-06T13:57:20.243Z,6.90
2018-01-06T13:59:47.805Z,6.90
2018-01-06T14:02:15.347Z,6.90
2018-01-06T14:04:55.819Z,6.90
2018-01-06T14:07:31.340Z,6.90
2018-01-06T14:09:59.174Z,6.90
2018-01-06T14:12:31.093Z,6.90
2018-01-06T14:14:59.401Z,7.00
2018-01-06T14:17:32.007Z,7.00
2018-01-06T14:19:59.628Z,7.00
2018-01-06T14:22:43.488Z,6.90
2018-01-06T14:28:09.873Z,6.90
2018-01-06T14:30:37.346Z,6.90
2018-01-06T14:36:13.647Z,6.80
2018-01-06T14:38:41.127Z,6.80
2018-01-06T14:41:09.403Z,6.50
2018-01-06T14:43:50.052Z,6.50
2018-01-06T14:46:21.144Z,6.50
2018-01-06T14:48:51.640Z,6.40
2018-01-06T14:51:19.878Z,6.30
2018-01-06T14:53:49.226Z,6.30
2018-01-06T14:56:22.384Z,6.30
2018-01-06T14:58:49.900Z,6.20
2018-01-06T15:01:17.416Z,6.20
2018-01-06T15:03:48.618Z,6.20
2018-01-06T15:06:16.103Z,6.10
2018-01-06T15:08:43.611Z,6.10
2018-01-06T15:11:11.134Z,6.00
2018-01-06T15:13:38.615Z,6.00
2018-01-06T15:16:06.187Z,5.90
2018-01-06T15:18:33.705Z,5.90
2018-01-06T15:21:01.248Z,5.80
2018-01-06T15:23:28.753Z,5.80
2018-01-06T15:25:56.272Z,5.80
2018-01-06T15:31:26.918Z,5.70
2018-01-06T15:33:54.466Z,5.70
2018-01-06T15:36:22.008Z,5.70
2018-01-06T15:38:49.556Z,5.70
2018-01-06T15:41:32.334Z,5.60
2018-01-06T15:43:59.818Z,5.60
2018-01-06T15:46:28.057Z,5.60
2018-01-06T15:48:55.569Z,5.60
2018-01-06T15:51:23.128Z,5.60
2018-01-06T15:53:50.642Z,5.60
2018-01-06T15:56:18.142Z,5.50
2018-01-06T15:58:45.723Z,5.50
2018-01-06T16:01:13.223Z,5.50
2018-01-06T16:03:40.707Z,5.50
2018-01-06T16:06:08.207Z,5.40
2018-01-06T16:08:35.681Z,5.40
2018-01-06T16:11:03.150Z,5.30
2018-01-06T16:13:30.701Z,5.30
2018-01-06T16:15:58.210Z,5.30
2018-01-06T16:18:25.682Z,5.20
2018-01-06T16:20:53.163Z,5.10
2018-01-06T16:23:20.713Z,5.10
2018-01-06T16:25:48.284Z,5.10
2018-01-06T16:28:15.766Z,5.10
2018-01-06T16:30:43.257Z,5.10
2018-01-06T16:33:10.770Z,5.00
2018-01-06T16:35:38.311Z,5.00
2018-01-06T16:38:05.853Z,5.00
2018-01-06T16:40:33.363Z,5.00
2018-01-06T16:43:01.602Z,5.00
2018-01-06T16:45:29.108Z,4.90
2018-01-06T16:47:57.381Z,4.90
2018-01-06T16:50:25.642Z,4.80
2018-01-06T16:52:53.135Z,4.80
2018-01-06T16:55:20.631Z,4.80
2018-01-06T16:57:48.137Z,4.80
2018-01-06T17:00:15.638Z,4.80
2018-01-06T17:02:43.117Z,4.80
2018-01-06T17:05:12.631Z,4.80
2018-01-06T17:07:40.212Z,4.70
2018-01-06T17:10:08.490Z,4.70
2018-01-06T17:12:35.993Z,4.70
2018-01-06T17:15:03.514Z,4.70
2018-01-06T17:17:31.015Z,4.60
2018-01-06T17:20:20.228Z,4.60
2018-01-06T17:22:50.735Z,4.60
2018-01-06T17:25:18.232Z,4.60
2018-01-06T17:27:45.731Z,4.50
2018-01-06T17:30:21.736Z,4.50
2018-01-06T17:32:49.995Z,4.50
2018-01-06T17:35:17.477Z,4.50
2018-01-06T17:46:46.849Z,4.40
2018-01-06T17:49:14.360Z,4.40
2018-01-06T17:51:44.668Z,4.40
2018-01-06T17:54:12.274Z,4.40
2018-01-06T17:56:41.132Z,4.40
2018-01-06T17:59:11.740Z,4.40
2018-01-06T18:01:59.793Z,4.40
2018-01-06T18:04:27.301Z,4.40
2018-01-06T18:06:59.848Z,4.40
2018-01-06T18:09:36.342Z,4.40
2018-01-06T18:12:06.853Z,4.30
2018-01-06T18:14:34.342Z,4.30
2018-01-06T18:17:07.802Z,4.20
2018-01-06T18:19:35.275Z,4.10
2018-01-06T18:22:18.801Z,4.00
2018-01-06T18:24:50.131Z,4.00
2018-01-06T18:27:17.643Z,4.00
2018-01-06T18:29:51.979Z,3.90
2018-01-06T18:32:20.058Z,3.90
2018-01-06T18:34:48.520Z,3.80
2018-01-06T18:55:01.423Z,3.60
2018-01-06T18:57:28.910Z,3.60
2018-01-06T18:59:56.462Z,3.60
2018-01-06T19:02:23.988Z,3.60
2018-01-06T19:04:51.466Z,3.60
2018-01-06T19:07:19.750Z,3.50
2018-01-06T19:09:48.053Z,3.50
2018-01-06T19:12:15.535Z,3.50
2018-01-06T19:14:43.054Z,3.50
2018-01-06T19:17:23.418Z,3.50
2018-01-06T19:19:50.912Z,3.40
2018-01-06T19:22:18.644Z,3.40
2018-01-06T19:24:48.356Z,3.40
2018-01-06T19:33:11.673Z,3.30
2018-01-06T19:35:39.187Z,3.30
2018-01-06T19:38:07.440Z,3.30
2018-01-06T19:40:34.949Z,3.30
2018-01-06T19:43:02.489Z,3.30
2018-01-06T19:45:29.987Z,3.20
2018-01-06T19:47:57.514Z,3.20
2018-01-06T19:50:25.047Z,3.10
2018-01-06T19:52:52.641Z,3.10
2018-01-06T19:55:20.151Z,3.10
2018-01-06T19:57:47.677Z,3.10
2018-01-06T20:00:15.200Z,3.10
2018-01-06T20:02:53.941Z,3.10
2018-01-06T20:05:24.442Z,3.10
2018-01-06T20:10:45.884Z,3.00
2018-01-06T20:13:23.912Z,3.00
2018-01-06T20:15:54.183Z,2.90
2018-01-06T20:18:32.366Z,2.90
2018-01-06T20:21:11.541Z,2.90
2018-01-06T20:29:47.491Z,2.80
2018-01-06T20:32:17.734Z,2.80
2018-01-06T20:38:03.906Z,2.80
2018-01-06T20:40:47.969Z,2.80
2018-01-06T20:43:30.111Z,2.80
2018-01-06T20:45:57.672Z,2.80
2018-01-06T20:48:31.056Z,2.80
2018-01-06T20:53:46.035Z,2.80
2018-01-06T20:56:13.543Z,2.80
2018-01-06T20:58:47.070Z,2.80
2018-01-06T21:01:21.464Z,2.80
2018-01-06T21:03:59.231Z,2.80
2018-01-06T21:06:35.693Z,2.80
2018-01-06T21:09:05.367Z,2.70
2018-01-06T21:11:51.502Z,2.70
2018-01-06T21:16:58.141Z,2.60
2018-01-06T21:19:25.686Z,2.60
2018-01-06T21:21:53.434Z,2.60
2018-01-06T21:24:21.706Z,2.50
2018-01-06T21:26:49.258Z,2.50
2018-01-06T21:29:16.782Z,2.50
2018-01-06T21:31:44.567Z,2.60
2018-01-06T21:34:12.147Z,2.60
2018-01-06T21:36:40.493Z,2.70
2018-01-06T21:39:13.724Z,2.70
2018-01-06T21:41:42.028Z,2.80
2018-01-06T21:44:09.643Z,2.80
2018-01-06T21:46:37.234Z,2.80
2018-01-06T21:49:10.905Z,2.90
2018-01-06T21:54:20.404Z,3.00
2018-01-06T22:02:53.021Z,3.10
2018-01-06T22:05:20.545Z,3.20
2018-01-06T22:07:48.957Z,3.20
2018-01-06T22:33:30.982Z,3.30
2018-01-06T22:35:59.535Z,3.40
2018-01-06T22:38:28.780Z,3.40
2018-01-06T22:43:55.291Z,3.40
2018-01-06T22:46:22.809Z,3.40
2018-01-06T22:48:56.710Z,3.40
2018-01-06T22:51:25.058Z,3.40
2018-01-06T22:54:17.808Z,3.40
2018-01-06T22:56:48.255Z,3.40
2018-01-06T22:59:22.101Z,3.40
2018-01-06T23:01:49.699Z,3.50
2018-01-06T23:04:17.221Z,3.40
2018-01-06T23:06:44.766Z,3.40
2018-01-06T23:09:12.353Z,3.40
2018-01-06T23:11:43.441Z,3.40
2018-01-06T23:14:11.765Z,3.50
2018-01-06T23:16:43.215Z,3.40
2018-01-06T23:19:14.791Z,3.40
2018-01-06T23:21:49.206Z,3.40
2018-01-06T23:24:23.081Z,3.40
2018-01-06T23:26:51.038Z,3.40
2018-01-06T23:29:18.520Z,3.40
2018-01-06T23:31:54.463Z,3.40
2018-01-06T23:34:22.030Z,3.40
2018-01-06T23:46:01.673Z,3.40
2018-01-06T23:48:40.301Z,3.30
2018-01-06T23:51:07.854Z,3.30
2018-01-06T23:53:35.365Z,3.30
2018-01-06T23:56:02.882Z,3.30
2018-01-06T23:58:30.378Z,3.30
